Time;durP1;ratioP1;P1;durP2;ratioP2;P2;SDS_P1;SDS_P2;PMS_P1;PMS_P2;Temp;Humidity;BMP_temperature;BMP_pressure;BME280_temperature;BME280_humidity;BME280_pressure;Samples;Min_cycle;Max_cycle;Signal;HPM_P1;HPM_P2
2020/12/05 00:02:23;;;;;;;34.33;24.97;;;3.60;99.90;;;;;;5139196;27;20466;-27
2020/12/05 00:04:50;;;;;;;35.13;27.33;;;3.50;99.90;;;;;;5139385;27;20844;-28
2020/12/05 00:07:19;;;;;;;35.40;26.30;;;3.30;99.90;;;;;;5140352;27;20438;-26
2020/12/05 00:09:46;;;;;;;36.37;26.40;;;3.20;99.90;;;;;;5139584;27;20433;-28
2020/12/05 00:12:12;;;;;;;31.60;24.73;;;3.10;99.90;;;;;;5138863;27;20831;-28
2020/12/05 00:14:39;;;;;;;35.67;25.67;;;2.90;99.90;;;;;;5120258;27;20450;-29
2020/12/05 00:17:07;;;;;;;37.77;27.10;;;2.80;99.90;;;;;;5150246;27;20894;-27
2020/12/05 00:19:33;;;;;;;41.90;27.27;;;2.70;99.90;;;;;;5159621;27;20441;-28
2020/12/05 00:22:00;;;;;;;32.93;24.37;;;2.50;99.90;;;;;;5158389;27;20474;-27
2020/12/05 00:24:28;;;;;;;35.93;25.13;;;2.40;99.90;;;;;;5158125;27;20437;-28
2020/12/05 00:26:55;;;;;;;40.90;25.33;;;2.40;99.90;;;;;;5158784;27;20837;-26
2020/12/05 00:29:22;;;;;;;36.63;27.00;;;2.30;99.90;;;;;;5157723;27;20451;-27
2020/12/05 00:31:51;;;;;;;36.90;25.47;;;2.20;99.90;;;;;;5157548;27;20490;-29
2020/12/05 00:34:18;;;;;;;31.97;23.23;;;2.20;99.90;;;;;;5157883;27;20436;-27
2020/12/05 00:36:46;;;;;;;38.80;26.77;;;2.20;99.90;;;;;;5158709;27;20441;-28
2020/12/05 00:39:13;;;;;;;36.53;25.60;;;2.20;99.90;;;;;;5154754;27;20434;-28
2020/12/05 00:41:41;;;;;;;44.57;28.87;;;2.20;99.90;;;;;;5138485;27;21123;-27
2020/12/05 00:44:10;;;;;;;42.80;29.13;;;2.30;99.90;;;;;;5138367;27;20887;-27
2020/12/05 00:46:41;;;;;;;42.17;28.60;;;2.20;99.90;;;;;;5138220;27;20909;-30
2020/12/05 00:49:09;;;;;;;47.50;30.20;;;2.10;99.90;;;;;;5136417;27;20502;-29
2020/12/05 00:51:35;;;;;;;41.00;28.27;;;2.10;99.90;;;;;;5138153;27;20454;-30
2020/12/05 00:54:04;;;;;;;38.93;27.67;;;2.10;99.90;;;;;;5119362;27;20959;-26
2020/12/05 00:56:30;;;;;;;38.97;25.80;;;2.10;99.90;;;;;;5118144;28;20463;-26
2020/12/05 00:58:59;;;;;;;40.17;24.33;;;2.10;99.90;;;;;;5116937;28;20442;-28
2020/12/05 01:01:29;;;;;;;37.97;24.77;;;2.20;99.90;;;;;;5116357;28;20454;-26
2020/12/05 01:03:57;;;;;;;33.77;23.10;;;2.10;99.90;;;;;;5117350;28;20906;-27
2020/12/05 01:06:23;;;;;;;40.30;24.53;;;2.10;99.90;;;;;;5117713;28;20446;-26
2020/12/05 01:08:50;;;;;;;30.13;22.03;;;2.00;99.90;;;;;;5116532;28;20523;-27
2020/12/05 01:11:19;;;;;;;41.13;25.97;;;2.00;99.90;;;;;;5116694;28;21039;-27
2020/12/05 01:13:49;;;;;;;35.00;24.57;;;2.00;99.90;;;;;;5116264;28;21036;-26
2020/12/05 01:16:18;;;;;;;39.80;26.10;;;2.10;99.90;;;;;;5116813;28;20463;-26
2020/12/05 01:18:47;;;;;;;40.20;28.63;;;2.10;99.90;;;;;;5114353;28;20927;-28
2020/12/05 01:21:15;;;;;;;37.23;24.20;;;2.10;99.90;;;;;;5135602;27;21009;-28
2020/12/05 01:23:44;;;;;;;39.93;26.40;;;2.20;99.90;;;;;;5137367;27;20438;-28
2020/12/05 01:26:12;;;;;;;40.10;25.07;;;2.30;99.90;;;;;;5136653;27;20514;-29
2020/12/05 01:28:39;;;;;;;38.80;26.07;;;2.50;99.90;;;;;;5137135;27;20487;-27
2020/12/05 01:31:06;;;;;;;38.07;24.43;;;2.70;99.90;;;;;;5136910;27;20484;-26
2020/12/05 01:33:36;;;;;;;36.67;24.87;;;2.80;99.90;;;;;;5136955;27;20469;-27
2020/12/05 01:36:05;;;;;;;34.67;25.70;;;2.90;99.90;;;;;;5136225;27;20506;-28
2020/12/05 01:38:32;;;;;;;36.47;24.30;;;3.00;99.90;;;;;;5136205;27;20755;-28
2020/12/05 01:41:00;;;;;;;35.87;24.57;;;3.10;99.90;;;;;;5136120;27;20457;-27
2020/12/05 01:43:30;;;;;;;33.67;23.30;;;3.20;99.90;;;;;;5134488;27;21162;-29
2020/12/05 01:45:59;;;;;;;36.07;24.13;;;3.20;99.90;;;;;;5154487;27;20448;-27
2020/12/05 01:48:27;;;;;;;34.50;22.67;;;3.20;99.90;;;;;;5158174;27;20501;-29
2020/12/05 01:50:56;;;;;;;31.67;22.73;;;3.10;99.90;;;;;;5158278;27;20444;-30
2020/12/05 01:53:24;;;;;;;32.77;23.30;;;3.10;99.90;;;;;;5158160;27;20713;-28
2020/12/05 01:55:51;;;;;;;35.17;21.97;;;3.10;99.90;;;;;;5156963;27;20429;-27
2020/12/05 01:58:18;;;;;;;33.17;24.60;;;3.00;99.90;;;;;;5157420;27;20494;-27
2020/12/05 02:00:48;;;;;;;39.87;25.60;;;3.10;99.90;;;;;;5157887;27;20502;-27
2020/12/05 02:03:16;;;;;;;42.70;23.20;;;3.20;99.90;;;;;;5156946;27;20457;-26
2020/12/05 02:06:02;;;;;;;32.60;23.40;;;3.20;99.90;;;;;;5156718;27;20457;-28
2020/12/05 02:08:37;;;;;;;34.37;24.37;;;3.30;99.90;;;;;;5151791;27;20500;-29
2020/12/05 02:11:12;;;;;;;38.20;23.87;;;3.30;99.90;;;;;;5135730;27;20433;-29
2020/12/05 02:13:46;;;;;;;38.23;26.43;;;3.30;99.90;;;;;;5136171;27;20433;-27
2020/12/05 02:16:18;;;;;;;37.20;28.00;;;3.30;99.90;;;;;;5135450;27;20587;-30
2020/12/05 02:18:46;;;;;;;32.73;23.30;;;3.30;99.90;;;;;;5136300;27;20434;-27
2020/12/05 02:21:17;;;;;;;37.17;23.67;;;3.30;99.90;;;;;;5136042;27;20487;-27
2020/12/05 02:23:46;;;;;;;34.30;25.07;;;3.40;99.90;;;;;;5134771;27;20469;-27
2020/12/05 02:26:18;;;;;;;37.37;24.97;;;3.50;99.90;;;;;;5117390;27;20505;-27
2020/12/05 02:28:44;;;;;;;46.33;25.60;;;3.60;99.90;;;;;;5114622;28;20749;-27
2020/12/05 02:31:14;;;;;;;35.67;25.50;;;3.50;99.90;;;;;;5114059;28;20907;-28
2020/12/05 02:33:42;;;;;;;34.27;23.97;;;3.50;99.90;;;;;;5123970;27;20491;-28
2020/12/05 02:36:13;;;;;;;42.37;24.30;;;3.60;99.90;;;;;;5156732;27;20445;-27
2020/12/05 02:38:50;;;;;;;40.93;26.53;;;3.70;99.90;;;;;;5156884;27;20493;-29
2020/12/05 02:41:18;;;;;;;31.70;24.30;;;3.70;99.90;;;;;;5154878;27;20437;-27
2020/12/05 02:43:45;;;;;;;37.10;24.30;;;3.80;99.90;;;;;;5154684;27;20442;-27
2020/12/05 02:46:12;;;;;;;34.30;24.83;;;3.80;99.90;;;;;;5155867;27;20441;-30
2020/12/05 02:48:39;;;;;;;33.13;23.23;;;3.80;99.90;;;;;;5155907;27;20502;-27
2020/12/05 02:51:11;;;;;;;39.27;24.83;;;3.80;99.90;;;;;;5156689;27;20783;-28
2020/12/05 02:53:40;;;;;;;37.43;25.93;;;3.70;99.90;;;;;;5156641;27;20536;-27
2020/12/05 02:56:10;;;;;;;39.30;26.40;;;3.70;99.90;;;;;;5155672;27;20488;-27
2020/12/05 02:58:38;;;;;;;33.73;23.97;;;3.70;99.90;;;;;;5148462;27;20497;-29
2020/12/05 03:01:05;;;;;;;37.47;24.73;;;3.80;99.90;;;;;;5134923;27;20840;-28
2020/12/05 03:03:35;;;;;;;36.27;25.80;;;3.80;99.90;;;;;;5131626;27;20426;-28
2020/12/05 03:06:04;;;;;;;28.90;22.77;;;3.80;99.90;;;;;;5136195;27;20549;-29
2020/12/05 03:08:32;;;;;;;36.20;23.00;;;3.80;99.90;;;;;;5135998;27;20430;-28
2020/12/05 03:10:59;;;;;;;31.80;23.70;;;3.80;99.90;;;;;;5136161;27;20430;-29
2020/12/05 03:13:27;;;;;;;35.70;25.70;;;3.70;99.90;;;;;;5135668;27;20560;-28
2020/12/05 03:15:54;;;;;;;35.93;24.47;;;3.70;99.90;;;;;;5120866;27;20731;-27
2020/12/05 03:18:21;;;;;;;36.83;25.30;;;3.70;99.90;;;;;;5116909;28;20446;-26
2020/12/05 03:20:48;;;;;;;35.30;24.03;;;3.70;99.90;;;;;;5134318;27;20452;-28
2020/12/05 03:23:15;;;;;;;35.10;24.50;;;3.70;99.90;;;;;;5135457;27;20473;-31
2020/12/05 03:25:42;;;;;;;32.67;24.77;;;3.60;99.90;;;;;;5143529;27;20536;-30
2020/12/05 03:28:10;;;;;;;35.27;23.50;;;3.60;99.90;;;;;;5134758;27;20445;-29
2020/12/05 03:30:38;;;;;;;31.10;22.60;;;3.60;99.90;;;;;;5135595;27;20765;-27
2020/12/05 03:33:10;;;;;;;35.70;23.97;;;3.60;99.90;;;;;;5135538;28;20484;-28
2020/12/05 03:35:37;;;;;;;35.60;23.20;;;3.60;99.90;;;;;;5133866;27;20450;-29
2020/12/05 03:38:04;;;;;;;34.57;25.10;;;3.60;99.90;;;;;;5134683;28;20839;-29
2020/12/05 03:40:31;;;;;;;37.47;25.83;;;3.60;99.90;;;;;;5133982;28;20441;-27
2020/12/05 03:42:59;;;;;;;29.60;23.50;;;3.60;99.90;;;;;;5133528;28;20612;-27
2020/12/05 03:45:26;;;;;;;40.23;24.33;;;3.70;99.90;;;;;;5134423;28;20870;-27
2020/12/05 03:47:55;;;;;;;34.10;24.00;;;3.70;99.90;;;;;;5135835;27;20470;-27
2020/12/05 03:50:22;;;;;;;32.87;24.37;;;3.60;99.90;;;;;;5153159;27;20537;-28
2020/12/05 03:52:50;;;;;;;40.83;24.50;;;3.50;99.90;;;;;;5156541;27;20437;-27
2020/12/05 03:55:17;;;;;;;31.30;23.40;;;3.50;99.90;;;;;;5156028;27;20497;-27
2020/12/05 03:57:45;;;;;;;33.70;24.00;;;3.60;99.90;;;;;;5156119;27;20438;-27
2020/12/05 04:00:15;;;;;;;30.83;23.80;;;3.60;99.90;;;;;;5155456;27;20438;-27
2020/12/05 04:02:43;;;;;;;29.83;24.40;;;3.60;99.90;;;;;;5152372;27;20476;-26
2020/12/05 04:05:11;;;;;;;30.90;24.63;;;3.60;99.90;;;;;;5152715;27;20461;-26
2020/12/05 04:07:39;;;;;;;28.80;22.30;;;3.60;99.90;;;;;;5155836;27;20455;-30
2020/12/05 04:10:06;;;;;;;29.27;23.30;;;3.60;99.90;;;;;;5155677;27;20433;-29
2020/12/05 04:12:34;;;;;;;28.80;22.67;;;3.50;99.90;;;;;;5135969;27;21030;-29
2020/12/05 04:15:01;;;;;;;29.20;23.40;;;3.60;99.90;;;;;;5143904;27;20527;-27
2020/12/05 04:17:29;;;;;;;26.97;22.63;;;3.70;99.90;;;;;;5134873;28;20449;-27
2020/12/05 04:19:56;;;;;;;25.03;19.67;;;3.70;99.90;;;;;;5134011;27;20848;-28
2020/12/05 04:22:25;;;;;;;26.33;18.43;;;3.70;99.90;;;;;;5134643;28;20477;-27
2020/12/05 04:24:52;;;;;;;22.97;19.40;;;3.80;99.90;;;;;;5133156;28;20441;-28
2020/12/05 04:27:20;;;;;;;23.10;18.43;;;3.80;99.90;;;;;;5132790;28;20438;-27
2020/12/05 04:29:47;;;;;;;19.50;17.10;;;3.80;99.90;;;;;;5134126;28;20460;-27
2020/12/05 04:32:15;;;;;;;19.07;15.73;;;3.90;99.90;;;;;;5133535;28;20852;-29
2020/12/05 04:34:42;;;;;;;17.80;14.90;;;3.90;99.90;;;;;;5134408;28;20442;-27
2020/12/05 04:37:09;;;;;;;18.00;16.10;;;3.90;99.90;;;;;;5133998;27;20477;-28
2020/12/05 04:39:37;;;;;;;20.07;17.23;;;3.80;99.90;;;;;;5149492;27;20667;-29
2020/12/05 04:42:04;;;;;;;20.47;17.13;;;3.80;99.90;;;;;;5159724;27;20469;-26
2020/12/05 04:44:31;;;;;;;19.80;17.20;;;3.80;99.90;;;;;;5159290;27;21024;-27
2020/12/05 04:47:00;;;;;;;23.83;18.60;;;3.90;99.90;;;;;;5158940;27;20429;-27
2020/12/05 04:49:29;;;;;;;19.17;17.20;;;3.90;99.90;;;;;;5158584;27;21035;-28
2020/12/05 04:52:02;;;;;;;19.70;17.30;;;4.00;99.90;;;;;;5158195;27;20482;-28
2020/12/05 04:54:28;;;;;;;18.47;16.47;;;3.90;99.90;;;;;;5158040;27;20525;-28
2020/12/05 04:56:59;;;;;;;18.70;16.73;;;3.80;99.90;;;;;;5159157;27;20448;-28
2020/12/05 04:59:27;;;;;;;19.13;16.37;;;3.80;99.90;;;;;;5159269;27;20429;-30
2020/12/05 05:01:58;;;;;;;18.20;15.60;;;3.80;99.90;;;;;;5139416;27;20476;-27
2020/12/05 05:04:26;;;;;;;17.87;16.03;;;3.80;99.90;;;;;;5156293;27;20495;-28
2020/12/05 05:07:03;;;;;;;15.67;14.17;;;3.90;99.90;;;;;;5157792;27;20433;-27
2020/12/05 05:09:31;;;;;;;16.77;14.93;;;4.00;99.90;;;;;;5154111;27;20453;-28
2020/12/05 05:12:00;;;;;;;16.13;14.57;;;4.00;99.90;;;;;;5136788;27;20462;-27
2020/12/05 05:14:33;;;;;;;21.00;15.60;;;4.10;99.90;;;;;;5140579;27;20453;-28
2020/12/05 05:17:05;;;;;;;21.33;15.50;;;4.20;99.90;;;;;;5157984;27;20429;-27
2020/12/05 05:19:34;;;;;;;17.27;15.47;;;4.20;99.90;;;;;;5153529;27;20489;-28
2020/12/05 05:22:01;;;;;;;16.23;14.53;;;4.20;99.90;;;;;;5142401;27;20727;-30
2020/12/05 05:24:29;;;;;;;16.80;13.83;;;4.30;99.90;;;;;;5138046;27;20431;-28
2020/12/05 05:27:01;;;;;;;18.70;15.87;;;4.30;99.90;;;;;;5137047;27;20454;-26
2020/12/05 05:29:32;;;;;;;16.13;14.60;;;4.30;99.90;;;;;;5146918;27;20484;-27
2020/12/05 05:32:05;;;;;;;16.50;14.13;;;4.30;99.90;;;;;;5156763;27;20447;-27
2020/12/05 05:34:35;;;;;;;16.20;14.47;;;4.20;99.90;;;;;;5157319;27;20440;-25
2020/12/05 05:37:12;;;;;;;16.00;14.43;;;4.20;99.90;;;;;;5156132;27;20433;-26
2020/12/05 05:39:48;;;;;;;15.13;13.60;;;4.20;99.90;;;;;;5157906;27;20429;-28
2020/12/05 05:42:30;;;;;;;17.17;15.40;;;4.20;99.90;;;;;;5155287;27;20537;-26
2020/12/05 05:45:15;;;;;;;16.80;14.37;;;4.30;99.90;;;;;;5156269;27;20455;-26
2020/12/05 05:47:42;;;;;;;19.53;16.00;;;4.30;99.90;;;;;;5157390;27;20844;-26
2020/12/05 05:50:19;;;;;;;18.97;15.50;;;4.30;99.90;;;;;;5156515;27;20430;-25
2020/12/05 05:52:53;;;;;;;21.97;19.53;;;4.40;99.90;;;;;;5154624;27;20425;-26
2020/12/05 05:55:20;;;;;;;26.77;22.07;;;4.40;99.90;;;;;;5144853;27;20496;-25
2020/12/05 05:57:59;;;;;;;23.63;19.83;;;4.40;99.90;;;;;;5157488;27;20868;-26
2020/12/05 06:00:27;;;;;;;46.53;32.50;;;4.40;99.90;;;;;;5156613;27;20436;-27
2020/12/05 06:02:58;;;;;;;33.50;28.70;;;4.40;99.90;;;;;;5151121;27;20565;-27
2020/12/05 06:05:29;;;;;;;22.73;18.33;;;4.40;99.90;;;;;;5135195;27;20426;-26
2020/12/05 06:07:59;;;;;;;17.13;15.33;;;4.30;99.90;;;;;;5135774;27;20457;-28
2020/12/05 06:10:27;;;;;;;16.23;14.60;;;4.30;99.90;;;;;;5135809;27;20433;-27
2020/12/05 06:12:56;;;;;;;17.17;13.23;;;4.30;99.90;;;;;;5135570;27;20445;-28
2020/12/05 06:15:26;;;;;;;15.83;14.13;;;4.30;99.90;;;;;;5135621;27;20431;-29
2020/12/05 06:17:57;;;;;;;17.90;15.23;;;4.40;99.90;;;;;;5134124;27;20866;-26
2020/12/05 06:20:35;;;;;;;17.63;15.80;;;4.40;99.90;;;;;;5135797;27;20434;-26
2020/12/05 06:23:04;;;;;;;19.67;17.60;;;4.50;99.90;;;;;;5136462;27;20457;-27
2020/12/05 06:25:33;;;;;;;19.27;16.50;;;4.50;99.90;;;;;;5134757;27;20445;-26
2020/12/05 06:28:06;;;;;;;18.73;15.50;;;4.50;99.90;;;;;;5134832;27;20442;-27
2020/12/05 06:30:33;;;;;;;16.40;14.57;;;4.50;99.90;;;;;;5134129;27;20511;-28
2020/12/05 06:33:00;;;;;;;16.37;14.07;;;4.50;99.90;;;;;;5134030;27;20434;-25
2020/12/05 06:35:33;;;;;;;17.10;14.37;;;4.50;99.90;;;;;;5154046;27;20484;-26
2020/12/05 06:38:01;;;;;;;15.07;13.67;;;4.60;99.90;;;;;;5155609;27;20433;-30
2020/12/05 06:40:39;;;;;;;16.10;14.00;;;4.60;99.90;;;;;;5155336;27;20723;-26
2020/12/05 06:43:15;;;;;;;15.40;13.80;;;4.60;99.90;;;;;;5154960;27;20588;-26
2020/12/05 06:45:44;;;;;;;14.07;12.70;;;4.60;99.90;;;;;;5153433;27;20528;-28
2020/12/05 06:48:32;;;;;;;15.23;13.50;;;4.50;99.90;;;;;;5153090;27;20462;-28
2020/12/05 06:51:00;;;;;;;18.40;16.50;;;4.50;99.90;;;;;;5135740;27;20530;-29
2020/12/05 06:53:34;;;;;;;18.77;16.17;;;4.50;99.90;;;;;;5143194;27;20437;-29
2020/12/05 06:56:17;;;;;;;16.50;14.77;;;4.40;99.90;;;;;;5156028;27;20556;-29
2020/12/05 06:58:56;;;;;;;16.93;15.20;;;4.30;99.90;;;;;;5152834;27;20535;-28
2020/12/05 07:01:34;;;;;;;16.60;14.90;;;4.30;99.90;;;;;;5153088;27;20531;-27
2020/12/05 07:04:30;;;;;;;17.90;16.00;;;4.20;99.90;;;;;;5154089;27;20897;-27
2020/12/05 07:06:57;;;;;;;17.03;15.33;;;4.10;99.90;;;;;;5106300;27;20468;-28
2020/12/05 07:09:44;;;;;;;19.17;13.97;;;4.10;99.90;;;;;;5155074;27;20914;-26
2020/12/05 07:12:20;;;;;;;15.73;14.07;;;4.00;99.90;;;;;;5141554;27;20472;-30
2020/12/05 07:14:50;;;;;;;17.53;15.03;;;4.00;99.90;;;;;;5144609;27;20454;-29
2020/12/05 07:17:21;;;;;;;18.27;16.20;;;3.90;99.90;;;;;;5140837;27;20466;-29
2020/12/05 07:19:50;;;;;;;25.50;19.37;;;3.90;99.90;;;;;;5144435;27;20447;-28
2020/12/05 07:22:19;;;;;;;21.50;16.23;;;3.90;99.90;;;;;;5141155;27;20472;-29
2020/12/05 07:24:47;;;;;;;20.67;17.90;;;3.90;99.90;;;;;;5143419;27;20880;-29
2020/12/05 07:27:17;;;;;;;17.43;15.80;;;3.90;99.90;;;;;;5141612;27;20434;-28
2020/12/05 07:29:55;;;;;;;16.77;14.97;;;3.90;99.90;;;;;;5142772;27;20553;-25
2020/12/05 07:32:23;;;;;;;16.27;14.57;;;3.90;99.90;;;;;;5139621;27;20430;-27
2020/12/05 07:34:50;;;;;;;17.97;14.73;;;3.90;99.90;;;;;;5141538;27;20517;-29
2020/12/05 07:37:26;;;;;;;15.73;14.13;;;3.90;99.90;;;;;;5143618;27;20677;-27
2020/12/05 07:39:53;;;;;;;19.63;14.73;;;4.00;99.90;;;;;;5140731;27;20496;-26
2020/12/05 07:42:21;;;;;;;16.60;14.90;;;4.00;99.90;;;;;;5143619;27;20499;-27
2020/12/05 07:44:51;;;;;;;18.60;16.30;;;4.00;99.90;;;;;;5142042;27;20787;-28
2020/12/05 07:47:20;;;;;;;19.20;15.97;;;4.00;99.90;;;;;;5138551;27;20499;-28
2020/12/05 07:49:51;;;;;;;21.30;16.63;;;4.00;99.90;;;;;;5143145;27;20448;-29
2020/12/05 07:52:20;;;;;;;18.43;16.30;;;4.00;99.90;;;;;;5153505;27;20444;-29
2020/12/05 07:54:51;;;;;;;20.10;17.37;;;4.10;99.90;;;;;;5153413;27;20509;-27
2020/12/05 07:57:22;;;;;;;18.07;15.93;;;4.00;99.90;;;;;;5150537;27;20445;-28
2020/12/05 07:59:49;;;;;;;17.23;15.40;;;4.10;99.90;;;;;;5151578;27;20461;-29
2020/12/05 08:02:30;;;;;;;17.23;15.63;;;4.10;99.90;;;;;;5132453;27;20480;-28
2020/12/05 08:05:03;;;;;;;18.13;15.27;;;4.10;99.90;;;;;;5152050;27;20476;-27
2020/12/05 08:07:38;;;;;;;19.50;17.10;;;4.10;99.90;;;;;;5152343;27;20445;-27
2020/12/05 08:10:09;;;;;;;22.90;17.97;;;4.10;99.90;;;;;;5152155;27;20518;-28
2020/12/05 08:13:05;;;;;;;22.97;16.57;;;4.20;99.90;;;;;;5152693;27;20437;-27
2020/12/05 08:15:34;;;;;;;19.33;17.30;;;4.30;99.90;;;;;;5138167;27;21063;-27
2020/12/05 08:18:03;;;;;;;18.50;16.53;;;4.30;99.90;;;;;;5137331;27;20437;-29
2020/12/05 08:20:31;;;;;;;21.77;16.00;;;4.40;99.90;;;;;;5150914;27;20453;-29
2020/12/05 08:22:58;;;;;;;17.27;15.47;;;4.40;99.90;;;;;;5135676;27;20474;-29
2020/12/05 08:25:26;;;;;;;18.40;16.57;;;4.50;99.90;;;;;;5135519;27;20572;-27
2020/12/05 08:27:54;;;;;;;23.87;18.73;;;4.50;99.90;;;;;;5141682;27;20514;-27
2020/12/05 08:30:22;;;;;;;18.77;16.87;;;4.60;99.90;;;;;;5135122;27;20434;-27
2020/12/05 08:32:59;;;;;;;20.33;16.60;;;4.50;99.90;;;;;;5134473;27;20450;-27
2020/12/05 08:35:30;;;;;;;22.43;17.80;;;4.50;99.90;;;;;;5134766;27;20426;-28
2020/12/05 08:38:02;;;;;;;19.93;17.70;;;4.60;99.90;;;;;;5140297;27;20504;-28
2020/12/05 08:40:29;;;;;;;23.10;19.20;;;4.70;99.90;;;;;;5155952;27;20555;-27
2020/12/05 08:42:57;;;;;;;22.00;19.30;;;4.70;99.90;;;;;;5153937;27;20492;-27
2020/12/05 08:45:24;;;;;;;26.57;18.87;;;4.80;99.90;;;;;;5136331;27;20445;-27
2020/12/05 08:47:52;;;;;;;20.07;17.90;;;4.80;99.90;;;;;;5116051;27;20567;-27
2020/12/05 08:50:23;;;;;;;17.30;15.03;;;4.90;99.90;;;;;;5131546;27;20459;-27
2020/12/05 08:52:54;;;;;;;22.93;16.03;;;4.90;99.90;;;;;;5135651;27;20936;-28
2020/12/05 08:55:22;;;;;;;18.10;16.27;;;5.00;99.90;;;;;;5135425;27;20434;-28
2020/12/05 08:57:57;;;;;;;21.10;17.70;;;5.10;99.90;;;;;;5133951;27;20438;-29
2020/12/05 09:00:25;;;;;;;17.17;15.47;;;5.20;99.90;;;;;;5134566;27;20434;-28
2020/12/05 09:02:53;;;;;;;18.13;15.40;;;5.30;99.90;;;;;;5133420;27;20498;-27
2020/12/05 09:05:23;;;;;;;18.03;14.27;;;5.40;99.90;;;;;;5133450;27;20454;-29
2020/12/05 09:07:59;;;;;;;16.07;14.40;;;5.40;99.90;;;;;;5133413;27;20437;-29
2020/12/05 09:10:28;;;;;;;17.80;16.00;;;5.30;99.90;;;;;;5132027;27;20461;-29
2020/12/05 09:13:04;;;;;;;16.00;14.27;;;5.30;99.90;;;;;;5134859;27;20485;-30
2020/12/05 09:15:33;;;;;;;14.63;13.17;;;5.30;99.90;;;;;;5135680;27;20829;-27
2020/12/05 09:18:00;;;;;;;18.10;16.40;;;5.40;99.90;;;;;;5108705;27;20441;-30
2020/12/05 09:20:28;;;;;;;17.50;15.40;;;5.50;99.90;;;;;;5135702;27;20449;-28
2020/12/05 09:22:57;;;;;;;20.47;17.00;;;5.50;99.90;;;;;;5151119;27;20481;-26
2020/12/05 09:25:30;;;;;;;19.00;15.50;;;5.60;99.90;;;;;;5154060;27;20502;-30
2020/12/05 09:27:57;;;;;;;17.23;15.40;;;5.60;99.90;;;;;;5153661;27;20437;-30
2020/12/05 09:30:24;;;;;;;17.60;15.77;;;5.60;99.90;;;;;;5153136;27;20484;-28
2020/12/05 09:32:53;;;;;;;17.50;15.70;;;5.30;99.90;;;;;;5147682;27;20431;-27
2020/12/05 09:35:25;;;;;;;22.80;20.27;;;5.10;99.90;;;;;;5132133;27;20446;-29
2020/12/05 09:37:52;;;;;;;18.33;16.43;;;4.90;99.90;;;;;;5133358;27;20462;-27
2020/12/05 09:40:21;;;;;;;16.97;14.93;;;4.90;99.90;;;;;;5134577;27;20733;-29
2020/12/05 09:42:49;;;;;;;21.47;17.60;;;5.00;99.90;;;;;;5153359;27;20518;-29
2020/12/05 09:45:18;;;;;;;23.20;19.67;;;5.20;99.90;;;;;;5145230;27;20433;-27
2020/12/05 09:47:45;;;;;;;22.37;20.00;;;5.30;99.90;;;;;;5134810;27;20454;-30
2020/12/05 09:50:14;;;;;;;20.47;18.27;;;5.40;99.90;;;;;;5131820;27;20519;-29
2020/12/05 09:52:42;;;;;;;23.47;20.17;;;5.50;99.90;;;;;;5138971;27;20437;-30
2020/12/05 09:55:08;;;;;;;23.17;20.80;;;5.60;99.90;;;;;;5132374;27;20438;-29
2020/12/05 09:57:37;;;;;;;23.40;20.60;;;5.70;99.90;;;;;;5152775;27;20444;-28
2020/12/05 10:00:09;;;;;;;21.50;16.93;;;5.80;99.90;;;;;;5153120;27;20440;-28
2020/12/05 10:02:37;;;;;;;19.67;17.73;;;5.70;99.90;;;;;;5143217;27;20541;-28
2020/12/05 10:05:04;;;;;;;18.23;16.50;;;5.70;99.90;;;;;;5144880;27;20835;-30
2020/12/05 10:07:33;;;;;;;20.20;17.90;;;5.70;99.90;;;;;;5149781;27;20462;-28
2020/12/05 10:10:00;;;;;;;19.03;16.73;;;5.80;99.90;;;;;;5142248;27;20446;-29
2020/12/05 10:12:27;;;;;;;19.37;17.40;;;5.80;99.90;;;;;;5138406;27;20498;-28
2020/12/05 10:14:55;;;;;;;19.50;17.70;;;5.90;99.90;;;;;;5133123;27;20494;-29
2020/12/05 10:17:24;;;;;;;18.07;16.33;;;5.80;99.90;;;;;;5142481;27;20510;-30
2020/12/05 10:19:51;;;;;;;20.67;17.33;;;5.80;99.90;;;;;;5146128;27;20433;-27
2020/12/05 10:22:18;;;;;;;19.30;16.60;;;5.80;99.90;;;;;;5131347;27;20515;-29
2020/12/05 10:24:46;;;;;;;24.67;18.90;;;5.80;99.90;;;;;;5112188;27;20442;-28
2020/12/05 10:27:13;;;;;;;18.50;16.60;;;5.80;99.90;;;;;;5130189;27;20434;-28
2020/12/05 10:29:40;;;;;;;19.77;17.67;;;5.90;99.90;;;;;;5129493;27;20487;-28
2020/12/05 10:32:09;;;;;;;20.70;18.50;;;6.00;99.90;;;;;;5141968;27;20505;-28
2020/12/05 10:34:36;;;;;;;22.63;18.87;;;6.00;99.90;;;;;;5128653;27;20453;-28
2020/12/05 10:37:03;;;;;;;20.30;18.23;;;6.10;99.90;;;;;;5130826;27;20469;-28
2020/12/05 10:39:30;;;;;;;21.70;19.50;;;6.10;99.90;;;;;;5131561;27;20900;-30
2020/12/05 10:41:58;;;;;;;21.53;19.20;;;6.10;99.90;;;;;;5130304;27;20494;-28
2020/12/05 10:44:25;;;;;;;20.20;18.10;;;6.20;99.90;;;;;;5135174;27;20461;-29
2020/12/05 10:46:53;;;;;;;19.53;17.70;;;6.20;99.90;;;;;;5151826;27;20793;-28
2020/12/05 10:49:22;;;;;;;17.97;16.03;;;6.10;99.90;;;;;;5152646;27;20437;-29
2020/12/05 10:51:49;;;;;;;19.67;17.77;;;6.10;99.90;;;;;;5136755;27;20526;-28
2020/12/05 10:54:16;;;;;;;21.17;16.87;;;6.10;99.90;;;;;;5129802;27;20503;-27
2020/12/05 10:56:43;;;;;;;18.03;16.27;;;6.00;99.90;;;;;;5128780;27;20469;-28
2020/12/05 10:59:11;;;;;;;18.37;16.07;;;6.00;99.90;;;;;;5109991;27;20454;-30
2020/12/05 11:01:42;;;;;;;25.23;19.27;;;5.90;99.90;;;;;;5131237;27;20757;-30
2020/12/05 11:04:11;;;;;;;20.33;17.47;;;5.90;99.90;;;;;;5127637;27;20468;-29
2020/12/05 11:06:40;;;;;;;21.57;19.33;;;5.90;99.90;;;;;;5134183;27;20909;-28
2020/12/05 11:09:08;;;;;;;19.17;17.17;;;5.90;99.90;;;;;;5148084;27;20486;-29
2020/12/05 11:11:35;;;;;;;22.63;20.30;;;6.00;99.90;;;;;;5148006;27;20429;-28
2020/12/05 11:14:02;;;;;;;20.17;17.50;;;6.00;99.90;;;;;;5148385;27;20569;-27
2020/12/05 11:16:29;;;;;;;18.83;15.93;;;6.00;99.90;;;;;;5146952;27;20433;-28
2020/12/05 11:18:59;;;;;;;19.93;17.93;;;6.10;99.90;;;;;;5133785;27;20442;-29
2020/12/05 11:21:26;;;;;;;18.60;15.60;;;6.10;99.90;;;;;;5148494;27;20773;-27
2020/12/05 11:23:54;;;;;;;18.90;17.10;;;6.20;99.90;;;;;;5129129;27;20485;-28
2020/12/05 11:26:21;;;;;;;19.53;17.47;;;6.10;99.90;;;;;;5128866;27;20453;-29
2020/12/05 11:28:48;;;;;;;18.20;16.33;;;6.10;99.90;;;;;;5130840;27;20458;-28
2020/12/05 11:31:14;;;;;;;24.93;20.37;;;6.00;99.90;;;;;;5131128;27;20430;-29
2020/12/05 11:33:41;;;;;;;21.53;18.93;;;5.90;99.90;;;;;;5128111;28;20542;-29
2020/12/05 11:36:08;;;;;;;23.40;18.23;;;5.80;99.90;;;;;;5129636;28;20427;-30
2020/12/05 11:38:34;;;;;;;18.67;16.77;;;5.80;99.90;;;;;;5128060;28;20456;-29
2020/12/05 11:41:02;;;;;;;21.23;18.63;;;5.70;99.90;;;;;;5127672;28;20464;-29
2020/12/05 11:43:29;;;;;;;21.97;19.67;;;5.70;99.90;;;;;;5127503;28;20486;-28
2020/12/05 11:45:56;;;;;;;16.40;14.80;;;5.80;99.90;;;;;;5128081;28;20430;-28
2020/12/05 11:48:23;;;;;;;18.20;16.20;;;5.70;99.90;;;;;;5120395;27;20537;-28
2020/12/05 11:50:49;;;;;;;20.80;16.57;;;5.60;99.90;;;;;;5132837;27;20434;-29
2020/12/05 11:53:16;;;;;;;16.33;14.73;;;5.80;99.90;;;;;;5132688;27;20438;-27
2020/12/05 11:55:43;;;;;;;18.70;16.70;;;5.90;99.90;;;;;;5131109;27;20466;-27
2020/12/05 11:58:11;;;;;;;20.93;16.27;;;6.00;99.90;;;;;;5141521;27;20447;-27
2020/12/05 12:00:38;;;;;;;18.30;16.50;;;6.10;99.90;;;;;;5153272;27;21115;-31
2020/12/05 12:03:05;;;;;;;19.13;14.97;;;6.00;99.90;;;;;;5135671;27;20932;-29
2020/12/05 12:05:31;;;;;;;20.70;17.80;;;5.90;99.90;;;;;;5132399;27;20480;-29
2020/12/05 12:07:58;;;;;;;17.90;16.13;;;6.00;99.90;;;;;;5132626;27;20449;-29
2020/12/05 12:17:16;;;;;;;16.70;14.33;;;6.30;99.90;;;;;;5152126;27;20660;-28
2020/12/05 12:19:42;;;;;;;17.97;15.50;;;6.10;99.90;;;;;;5152919;27;20857;-29
2020/12/05 12:22:09;;;;;;;19.60;17.60;;;6.10;99.90;;;;;;5140518;27;20472;-29
2020/12/05 12:24:36;;;;;;;17.70;15.00;;;6.20;99.90;;;;;;5130652;27;20461;-27
2020/12/05 12:27:02;;;;;;;16.80;15.00;;;6.00;99.90;;;;;;5131552;27;20446;-26
2020/12/05 12:29:30;;;;;;;17.73;15.40;;;5.80;99.90;;;;;;5132706;27;20443;-27
2020/12/05 12:31:57;;;;;;;17.73;15.90;;;5.70;99.90;;;;;;5133000;27;20444;-27
2020/12/05 12:34:24;;;;;;;18.97;16.60;;;5.70;99.90;;;;;;5125833;27;20812;-27
2020/12/05 12:36:51;;;;;;;18.90;16.20;;;5.90;99.90;;;;;;5132177;27;20437;-26
2020/12/05 12:39:18;;;;;;;18.30;16.50;;;5.90;99.90;;;;;;5133280;27;20545;-27
2020/12/05 12:41:45;;;;;;;20.33;18.17;;;6.10;99.90;;;;;;5131976;27;20506;-28
2020/12/05 12:44:12;;;;;;;20.23;16.13;;;6.10;99.90;;;;;;5132560;27;20461;-28
2020/12/05 12:46:48;;;;;;;18.17;16.30;;;5.80;99.90;;;;;;5133998;27;20490;-27
2020/12/05 12:49:15;;;;;;;19.07;17.00;;;5.70;99.90;;;;;;5131699;27;20499;-27
2020/12/05 12:51:42;;;;;;;18.13;16.20;;;5.90;99.90;;;;;;5131482;27;20434;-28
2020/12/05 12:54:08;;;;;;;23.67;18.10;;;5.90;99.90;;;;;;5133708;27;20430;-29